Domov               UVHVVR             MKGP            O straneh              
ZDRAVSTVENO VARSTVO RASTLIN
  MREŽA AGROMET. POSTAJ
 ► PROGNOSTIČNA OBVESTILA
AGROMETEOROLOŠKI PODATKI -
ARSO
OBVLADOVANJE TVEGANJ ZARADI
NEUGODNIH VREMENSKIH RAZMER
  ► NARAVNE NESREČE
  ► SUŠA/MOČA
  ► NAMAKANJE
  ► ŽLED (gozdarstvo)
KARTOGRAFSKI PRIKAZI
SPLETNE POVEZAVE
PROJEKTI IN PUBLIKACIJE

AGROMETEOROLOŠKA MREŽA: VREMENSKE POSTAJE IN FENOLOŠKA OPAZOVANJA

Pregled podatkov za lokacijo Vipolže, meteorološka postaja 44544

Pregled senzorjev na lokaciji

ID Ime Zadnja
vrednost
Datum
zadnje
spremembe
Tip
senzorja
3083 Temperatura 2 m ( °C) 18,11 °C 26.6.2017 00:00 50YA
3084 Relativna vlaga 2 m (% RH) 99,35 % RH 26.6.2017 00:00 50YA
3085 Omočenost lista (U) 1 U 26.6.2017 00:00 A730WET
3086 Padavine 0.2 mm (mm) 0 mm 26.6.2017 00:00 Rain-O-Matic
4029 Hitrost vetra (km/h) 0,45 km/h 26.6.2017 00:00 Generic 200 km/h
4030 Smer vetra (°) 61,08 ° 26.6.2017 00:00 Generic 0 - 360

Pregled podatkov zadnjih 24 ur

Zap.
št.
Datum in čas Vipolže
Hitrost
vetra
Omočenost
lista
Padavine
0.2
mm
Relativna
vlaga
2
m
Smer
vetra
Temperatura
2
m
0 25.6.2017 23:00 0,45 1 0 99,35 61,08 18,11
1 25.6.2017 22:30 0,31 1 0 99,09 80,4 18,28
2 25.6.2017 22:00 0,2 1 0 98,81 54,08 18,67
3 25.6.2017 21:30 0,28 1 0 98,43 50,48 19,04
4 25.6.2017 21:00 0,08 1 0 97,44 46,91 19,34
5 25.6.2017 20:30 0,04 0 0 95,36 43,98 19,92
6 25.6.2017 20:00 0,3 0 0 93,05 70,28 21,21
7 25.6.2017 19:30 0 0 0 86,52 125,42 23,49
8 25.6.2017 19:00 0,75 0 0 87,13 143,84 23,54
9 25.6.2017 18:30 2,54 2 0 95,05 128,86 22,02
10 25.6.2017 18:00 0,09 10 0 97,57 157,28 21,01
11 25.6.2017 17:30 2,62 10 0 96,46 260,29 20,73
12 25.6.2017 17:00 4,44 10 0,2 95,03 220,39 20,81
13 25.6.2017 16:30 6,57 10 1,6 97,23 91,17 20,48
14 25.6.2017 16:00 2,58 10 1,2 96,23 55,07 20,6
15 25.6.2017 15:30 0,4 9 0,8 93,57 0,63 21,19
16 25.6.2017 15:00 0,64 0 0 87,75 70,06 21,95
17 25.6.2017 14:30 0,05 0 0 86,18 46,29 22,97
18 25.6.2017 14:00 0,48 0 0 80,16 53,96 23,95
19 25.6.2017 13:30 1,48 0 0 76,89 41,91 24,89
20 25.6.2017 13:00 1,17 0 0 81,63 51,1 23,17
21 25.6.2017 12:30 0,88 0 0 85,12 131,13 21,97
22 25.6.2017 12:00 3 4 0 94,73 134,8 19,27
23 25.6.2017 11:30 2,33 10 0 98,58 117,55 17,86
24 25.6.2017 11:00 4,07 10 0,2 97,9 161,48 17,2
25 25.6.2017 10:30 12,89 10 5,4 92,13 70,2 19,48
26 25.6.2017 10:00 0,64 0 0 86,38 51,27 23,93
27 25.6.2017 09:30 0,06 0 0 83,97 62,51 24,35
28 25.6.2017 09:00 0,85 0 0 78,04 81,7 25,21
29 25.6.2017 08:30 1,31 0 0 74,67 92,67 26,49
30 25.6.2017 08:00 0,78 0 0 74,74 108,83 26,66
31 25.6.2017 07:30 1,78 0 0 76,54 113,58 25,62
32 25.6.2017 07:00 0,76 0 0 80,93 79,08 24,15
33 25.6.2017 06:30 0,97 0 0 80,53 45,49 23,14
34 25.6.2017 06:00 0,84 0 0 85,11 69,39 22,95
35 25.6.2017 05:30 0,15 0 0 82,28 163,56 23,32
36 25.6.2017 05:00 0,97 1 0 95,3 64,84 21,12
37 25.6.2017 04:30 0 2 0 96,1 62,96 20,78
38 25.6.2017 04:00 0,33 2 0 96,82 62,95 20,43
39 25.6.2017 03:30 0,29 2 0 96,68 68,32 20,25
40 25.6.2017 03:00 0,15 2 0 96,06 53,32 20,28
41 25.6.2017 02:30 0,12 2 0 95,8 69,72 20,44
42 25.6.2017 02:00 0,21 2 0 95,47 50,43 20,5
43 25.6.2017 01:30 0 1 0 94,29 60,87 20,84
44 25.6.2017 01:00 0,35 1 0 93,33 60,87 21,29
© 2011 Ministrstvo za kmetijstvo, gozdarstvo in prehrano. Vse pravice pridržane.